createdAt,value
2022-09-28T00:02:11.875Z,12.38
2022-09-28T00:04:38.564Z,12.23
2022-09-28T00:07:32.600Z,12.32
2022-09-28T00:10:11.297Z,12.21
2022-09-28T00:12:37.893Z,12.13
2022-09-28T00:15:05.075Z,12.21
2022-09-28T00:21:05.410Z,12.15
2022-09-28T00:23:32.454Z,12.17
2022-09-28T00:26:03.339Z,12.19
2022-09-28T00:28:29.913Z,12.20
2022-09-28T00:31:40.151Z,12.28
2022-09-28T00:34:06.738Z,12.25
2022-09-28T00:36:33.907Z,12.19
2022-09-28T00:39:04.706Z,11.97
2022-09-28T00:41:45.239Z,12.09
2022-09-28T00:44:41.909Z,12.15
2022-09-28T00:47:24.351Z,12.10
2022-09-28T00:49:57.444Z,12.04
2022-09-28T00:52:28.842Z,11.94
2022-09-28T00:54:57.110Z,12.11
2022-09-28T01:00:49.029Z,12.02
2022-09-28T01:03:16.243Z,12.03
2022-09-28T01:05:44.719Z,11.99
2022-09-28T01:08:12.764Z,12.15
2022-09-28T01:10:40.527Z,12.06
2022-09-28T01:13:07.189Z,11.98
2022-09-28T01:15:42.559Z,12.07
2022-09-28T01:18:17.041Z,11.91
2022-09-28T01:21:05.360Z,11.90
2022-09-28T01:23:53.492Z,12.13
2022-09-28T01:26:34.650Z,12.06
2022-09-28T01:29:08.845Z,12.04
2022-09-28T01:31:36.838Z,12.07
2022-09-28T01:34:08.411Z,12.13
2022-09-28T01:36:41.160Z,12.17
2022-09-28T01:39:10.876Z,11.99
2022-09-28T01:41:42.212Z,11.98
2022-09-28T01:44:14.697Z,12.05
2022-09-28T01:46:43.157Z,11.98
2022-09-28T01:49:14.806Z,12.15
2022-09-28T01:51:47.944Z,12.11
2022-09-28T01:54:21.986Z,12.04
2022-09-28T01:56:54.456Z,11.84
2022-09-28T01:59:25.084Z,12.06
2022-09-28T02:01:55.932Z,11.97
2022-09-28T02:04:27.712Z,12.02
2022-09-28T02:07:00.927Z,12.05
2022-09-28T02:09:33.773Z,11.93
2022-09-28T02:12:08.373Z,11.78
2022-09-28T02:14:39.385Z,11.94
2022-09-28T02:17:06.395Z,11.87
2022-09-28T02:19:33.833Z,11.91
2022-09-28T02:22:08.663Z,11.90
2022-09-28T02:24:38.645Z,11.90
2022-09-28T02:27:15.762Z,11.99
2022-09-28T02:29:42.375Z,12.08
2022-09-28T02:32:08.993Z,12.02
2022-09-28T02:34:35.995Z,12.07
2022-09-28T02:37:03.247Z,12.16
2022-09-28T02:39:29.796Z,12.10
2022-09-28T02:42:04.449Z,12.12
2022-09-28T02:44:47.386Z,12.12
2022-09-28T02:47:26.262Z,12.12
2022-09-28T02:50:03.640Z,12.05
2022-09-28T02:52:47.736Z,12.08
2022-09-28T02:55:24.203Z,12.08
2022-09-28T02:58:08.404Z,12.08
2022-09-28T03:00:44.689Z,12.04
2022-09-28T03:03:18.160Z,11.88
2022-09-28T03:05:53.197Z,11.98
2022-09-28T03:08:24.642Z,11.98
2022-09-28T03:10:58.533Z,12.02
2022-09-28T03:13:26.776Z,12.11
2022-09-28T03:16:07.532Z,12.10
2022-09-28T03:18:34.170Z,12.08
2022-09-28T03:21:01.737Z,12.19
2022-09-28T03:23:28.636Z,12.08
2022-09-28T03:25:55.497Z,12.11
2022-09-28T03:28:22.075Z,12.16
2022-09-28T03:30:48.764Z,12.07
2022-09-28T03:33:16.870Z,12.10
2022-09-28T03:35:46.727Z,12.24
2022-09-28T03:38:13.328Z,12.12
2022-09-28T03:40:39.900Z,12.13
2022-09-28T03:43:06.785Z,12.10
2022-09-28T03:45:33.316Z,12.09
2022-09-28T03:48:00.131Z,12.14
2022-09-28T03:50:28.080Z,12.13
2022-09-28T03:52:54.617Z,12.06
2022-09-28T03:55:21.679Z,11.91
2022-09-28T03:57:53.677Z,12.05
2022-09-28T04:00:20.362Z,11.98
2022-09-28T04:02:46.903Z,12.01
2022-09-28T04:05:13.620Z,11.98
2022-09-28T04:07:41.700Z,12.00
2022-09-28T04:10:09.202Z,12.04
2022-09-28T04:12:35.740Z,12.01
2022-09-28T04:15:02.425Z,11.90
2022-09-28T04:17:28.944Z,11.70
2022-09-28T04:19:55.851Z,11.63
2022-09-28T04:22:22.546Z,11.57
2022-09-28T04:24:50.500Z,11.85
2022-09-28T04:27:17.084Z,11.87
2022-09-28T04:29:43.960Z,11.82
2022-09-28T04:32:10.930Z,11.80
2022-09-28T04:34:41.872Z,11.75
2022-09-28T04:37:10.531Z,11.82
2022-09-28T04:39:37.056Z,11.93
2022-09-28T04:42:05.420Z,11.97
2022-09-28T04:44:31.990Z,12.00
2022-09-28T04:47:02.877Z,11.97
2022-09-28T04:49:31.467Z,12.04
2022-09-28T04:51:58.067Z,12.00
2022-09-28T04:54:25.170Z,11.90
2022-09-28T04:56:52.105Z,11.92
2022-09-28T04:59:20.366Z,11.89
2022-09-28T05:01:46.930Z,12.05
2022-09-28T05:04:13.469Z,12.05
2022-09-28T05:06:40.018Z,12.15
2022-09-28T05:09:06.841Z,12.12
2022-09-28T05:11:33.596Z,12.06
2022-09-28T05:14:00.384Z,12.20
2022-09-28T05:16:28.909Z,12.23
2022-09-28T05:18:56.006Z,12.20
2022-09-28T05:21:22.970Z,12.29
2022-09-28T05:23:49.826Z,12.25
2022-09-28T05:26:16.362Z,12.28
2022-09-28T05:28:43.126Z,12.28
2022-09-28T05:31:10.315Z,12.18
2022-09-28T05:33:38.537Z,12.18
2022-09-28T05:36:08.387Z,12.37
2022-09-28T05:38:35.030Z,12.55
2022-09-28T05:41:06.268Z,12.47
2022-09-28T05:43:35.140Z,12.41
2022-09-28T05:46:02.265Z,12.37
2022-09-28T05:48:29.115Z,12.42
2022-09-28T05:50:57.459Z,12.52
2022-09-28T05:53:24.623Z,12.51
2022-09-28T05:55:51.803Z,12.54
2022-09-28T05:58:21.187Z,12.54
2022-09-28T06:00:56.536Z,12.54
2022-09-28T06:03:23.761Z,12.49
2022-09-28T06:05:50.397Z,12.43
2022-09-28T06:08:19.320Z,12.40
2022-09-28T06:10:46.878Z,12.37
2022-09-28T06:13:14.026Z,12.36
2022-09-28T06:15:42.867Z,12.32
2022-09-28T06:18:11.463Z,12.36
2022-09-28T06:20:42.258Z,12.35
2022-09-28T06:23:13.571Z,12.32
2022-09-28T06:25:41.865Z,12.35
2022-09-28T06:28:10.724Z,12.35
2022-09-28T06:30:38.105Z,12.45
2022-09-28T06:33:06.231Z,12.46
2022-09-28T06:35:33.060Z,12.24
2022-09-28T06:38:00.466Z,12.43
2022-09-28T06:40:30.137Z,12.42
2022-09-28T06:43:00.580Z,12.27
2022-09-28T06:45:29.785Z,12.37
2022-09-28T06:47:58.211Z,12.55
2022-09-28T06:50:25.854Z,12.59
2022-09-28T06:52:54.547Z,12.50
2022-09-28T06:55:21.879Z,12.78
2022-09-28T06:57:59.003Z,12.72
2022-09-28T07:00:27.477Z,12.54
2022-09-28T07:02:55.753Z,12.75
2022-09-28T07:05:32.130Z,12.71
2022-09-28T07:07:58.793Z,12.73
2022-09-28T07:10:27.644Z,12.69
2022-09-28T07:12:55.096Z,12.71
2022-09-28T07:15:24.806Z,12.76
2022-09-28T07:18:01.863Z,12.72
2022-09-28T07:20:31.726Z,12.54
2022-09-28T07:23:15.633Z,12.82
2022-09-28T07:25:44.629Z,12.74
2022-09-28T07:28:11.813Z,12.79
2022-09-28T07:30:40.126Z,12.71
2022-09-28T07:33:09.384Z,12.79
2022-09-28T07:35:35.904Z,12.61
2022-09-28T07:38:06.432Z,12.86
2022-09-28T07:40:35.347Z,12.83
2022-09-28T07:43:05.370Z,12.83
2022-09-28T07:45:34.503Z,12.64
2022-09-28T07:48:05.660Z,12.57
2022-09-28T07:50:35.943Z,12.64
2022-09-28T10:20:31.970Z,15.15
2022-09-28T10:23:00.688Z,15.37
2022-09-28T10:25:28.058Z,15.54
2022-09-28T10:27:55.273Z,16.31
2022-09-28T10:30:23.988Z,16.73
2022-09-28T10:32:52.086Z,16.39
2022-09-28T10:35:24.690Z,16.70
2022-09-28T10:38:01.620Z,16.52
2022-09-28T10:40:37.709Z,16.81
2022-09-28T10:43:08.193Z,17.07
2022-09-28T10:45:36.912Z,17.10
2022-09-28T10:48:16.419Z,17.15
2022-09-28T10:50:43.394Z,17.34
2022-09-28T10:53:18.898Z,17.56
2022-09-28T10:55:57.139Z,17.55
2022-09-28T10:58:29.753Z,17.73
2022-09-28T11:01:02.419Z,18.07
2022-09-28T11:03:30.474Z,18.63
2022-09-28T11:05:59.515Z,18.88
2022-09-28T11:08:39.210Z,18.98
2022-09-28T11:11:09.389Z,18.40
2022-09-28T11:13:45.529Z,17.91
2022-09-28T11:16:22.664Z,17.41
2022-09-28T11:18:49.856Z,17.29
2022-09-28T11:21:21.732Z,16.94
2022-09-28T11:24:03.393Z,16.98
2022-09-28T11:26:39.747Z,16.88
2022-09-28T11:29:08.522Z,16.75
2022-09-28T11:31:36.782Z,16.61
2022-09-28T11:34:12.441Z,16.71
2022-09-28T11:37:03.107Z,17.07
2022-09-28T11:39:41.174Z,17.53
2022-09-28T11:42:31.638Z,17.94
2022-09-28T11:45:10.665Z,18.35
2022-09-28T11:47:53.185Z,18.55
2022-09-28T11:50:31.027Z,18.67
2022-09-28T11:53:04.718Z,18.63
2022-09-28T11:55:39.085Z,18.73
2022-09-28T11:58:12.420Z,18.97
2022-09-28T12:00:46.327Z,19.13
2022-09-28T12:03:16.870Z,18.95
2022-09-28T12:05:49.340Z,18.77
2022-09-28T12:08:22.590Z,18.52
2022-09-28T12:10:54.758Z,18.19
2022-09-28T12:13:26.180Z,18.06
2022-09-28T12:18:49.695Z,17.62
2022-09-28T12:21:37.395Z,17.37
2022-09-28T12:24:12.612Z,17.42
2022-09-28T12:26:48.601Z,17.65
2022-09-28T12:29:23.937Z,18.19
2022-09-28T12:32:02.856Z,18.52
2022-09-28T12:34:29.594Z,18.38
2022-09-28T12:37:08.183Z,18.30
2022-09-28T12:39:57.634Z,17.45
2022-09-28T12:42:50.356Z,16.84
2022-09-28T12:45:47.731Z,16.90
2022-09-28T12:49:36.650Z,16.68
2022-09-28T12:51:50.500Z,16.76
2022-09-28T12:54:33.446Z,16.66
2022-09-28T12:57:13.032Z,16.79
2022-09-28T12:59:49.887Z,16.93
2022-09-28T13:02:37.774Z,16.97
2022-09-28T13:05:21.848Z,17.19
2022-09-28T13:07:56.103Z,17.85
2022-09-28T13:10:30.055Z,18.06
2022-09-28T13:13:11.971Z,18.00
2022-09-28T13:15:46.499Z,18.76
2022-09-28T13:18:21.110Z,19.00
2022-09-28T13:21:18.695Z,19.11
2022-09-28T13:23:47.223Z,19.04
2022-09-28T13:26:22.084Z,19.62
2022-09-28T13:28:50.565Z,19.93
2022-09-28T13:31:26.766Z,19.54
2022-09-28T13:33:58.198Z,19.70
2022-09-28T13:36:42.519Z,20.22
2022-09-28T13:39:37.496Z,20.55
2022-09-28T13:42:08.051Z,20.76
2022-09-28T13:45:10.706Z,20.73
2022-09-28T13:48:23.063Z,21.15
2022-09-28T13:51:31.271Z,21.46
2022-09-28T13:54:19.753Z,21.25
2022-09-28T13:57:12.814Z,21.03
2022-09-28T13:59:54.597Z,21.56
2022-09-28T14:02:43.132Z,21.25
2022-09-28T14:05:52.494Z,21.19
2022-09-28T14:08:28.526Z,20.52
2022-09-28T14:10:56.369Z,20.22
2022-09-28T14:14:02.409Z,19.99
2022-09-28T14:16:35.434Z,19.65
2022-09-28T14:19:07.625Z,19.71
2022-09-28T14:22:17.430Z,19.28
2022-09-28T14:25:08.595Z,19.26
2022-09-28T14:28:16.583Z,19.60
2022-09-28T14:30:49.263Z,19.54
2022-09-28T14:33:34.952Z,19.77
2022-09-28T14:39:20.297Z,19.29
2022-09-28T14:41:47.240Z,18.97
2022-09-28T14:44:15.171Z,18.95
2022-09-28T14:46:42.746Z,19.06
2022-09-28T14:49:44.815Z,19.00
2022-09-28T14:52:13.476Z,19.06
2022-09-28T14:54:54.143Z,18.45
2022-09-28T14:57:24.124Z,17.69
2022-09-28T15:00:13.752Z,17.59
2022-09-28T15:02:52.331Z,16.98
2022-09-28T15:05:23.803Z,16.60
2022-09-28T15:07:52.538Z,16.66
2022-09-28T15:10:27.967Z,16.45
2022-09-28T15:13:27.991Z,17.05
2022-09-28T15:15:59.793Z,16.43
2022-09-28T15:18:56.403Z,16.56
2022-09-28T15:21:33.216Z,15.44
2022-09-28T15:24:00.515Z,14.86
2022-09-28T15:26:31.657Z,15.05
2022-09-28T15:28:59.354Z,15.05
2022-09-28T15:31:28.199Z,14.98
2022-09-28T15:33:55.071Z,15.00
2022-09-28T15:36:25.135Z,14.86
2022-09-28T15:38:56.973Z,14.74
2022-09-28T15:41:24.716Z,14.61
2022-09-28T15:44:39.836Z,14.69
2022-09-28T15:47:11.820Z,14.66
2022-09-28T15:49:43.181Z,14.82
2022-09-28T15:52:24.103Z,14.82
2022-09-28T15:54:51.227Z,14.85
2022-09-28T15:57:33.843Z,14.89
2022-09-28T16:00:02.249Z,14.91
2022-09-28T16:02:31.763Z,14.75
2022-09-28T16:05:01.107Z,14.69
2022-09-28T16:07:36.152Z,14.42
2022-09-28T16:10:25.911Z,14.42
2022-09-28T16:12:58.347Z,14.32
2022-09-28T16:15:29.062Z,14.16
2022-09-28T16:17:57.746Z,14.01
2022-09-28T16:20:28.359Z,14.10
2022-09-28T16:22:56.129Z,13.81
2022-09-28T16:25:25.785Z,13.69
2022-09-28T16:27:55.636Z,13.57
2022-09-28T16:30:24.360Z,13.59
2022-09-28T16:32:56.373Z,13.46
2022-09-28T16:35:31.314Z,13.50
2022-09-28T16:38:04.681Z,13.50
2022-09-28T16:40:32.628Z,13.35
2022-09-28T16:43:02.109Z,13.39
2022-09-28T16:45:29.539Z,13.39
2022-09-28T16:47:58.290Z,13.49
2022-09-28T16:50:25.679Z,13.52
2022-09-28T16:53:00.066Z,13.58
2022-09-28T16:55:40.162Z,13.56
2022-09-28T16:58:07.448Z,13.54
2022-09-28T17:00:33.992Z,13.53
2022-09-28T17:03:14.907Z,13.53
2022-09-28T17:05:43.118Z,13.29
2022-09-28T17:08:13.889Z,13.42
2022-09-28T17:11:02.563Z,13.43
2022-09-28T17:13:33.138Z,13.36
2022-09-28T17:16:01.128Z,13.34
2022-09-28T17:18:29.723Z,13.35
2022-09-28T17:20:57.543Z,13.34
2022-09-28T17:23:26.436Z,13.36
2022-09-28T17:25:53.056Z,13.21
2022-09-28T17:28:23.269Z,13.40
2022-09-28T17:30:51.728Z,13.40
2022-09-28T17:33:21.468Z,13.44
2022-09-28T17:35:52.809Z,13.39
2022-09-28T17:38:19.693Z,13.50
2022-09-28T17:40:48.071Z,13.29
2022-09-28T17:43:14.772Z,13.38
2022-09-28T17:45:41.526Z,13.40
2022-09-28T17:48:13.016Z,13.39
2022-09-28T17:50:43.205Z,13.27
2022-09-28T17:53:14.025Z,13.35
2022-09-28T17:55:41.274Z,13.13
2022-09-28T17:58:19.001Z,13.04
2022-09-28T18:00:47.012Z,13.02
2022-09-28T18:03:15.705Z,12.98
2022-09-28T18:05:43.912Z,12.94
2022-09-28T18:08:16.974Z,12.86
2022-09-28T18:10:43.544Z,12.79
2022-09-28T18:13:10.099Z,12.74
2022-09-28T18:15:37.083Z,12.58
2022-09-28T18:18:04.242Z,12.59
2022-09-28T18:20:31.009Z,12.64
2022-09-28T18:22:57.732Z,12.62
2022-09-28T18:25:25.668Z,12.54
2022-09-28T18:27:52.304Z,12.45
2022-09-28T18:30:19.237Z,12.45
2022-09-28T18:32:51.345Z,12.56
2022-09-28T18:35:32.063Z,12.41
2022-09-28T18:37:58.748Z,12.42
2022-09-28T18:40:31.806Z,12.45
2022-09-28T18:43:11.971Z,12.19
2022-09-28T18:45:47.190Z,12.26
2022-09-28T18:48:19.029Z,12.30
2022-09-28T18:50:47.610Z,12.28
2022-09-28T18:53:14.234Z,12.21
2022-09-28T18:55:43.432Z,12.15
2022-09-28T18:58:10.898Z,12.04
2022-09-28T19:00:38.456Z,12.07
2022-09-28T19:03:05.353Z,12.09
2022-09-28T19:05:34.645Z,12.17
2022-09-28T19:08:04.435Z,12.10
2022-09-28T19:10:32.264Z,12.07
2022-09-28T19:13:00.217Z,11.98
2022-09-28T19:15:36.932Z,12.00
2022-09-28T19:18:05.247Z,11.98
2022-09-28T19:20:32.731Z,11.90
2022-09-28T19:22:59.606Z,11.87
2022-09-28T19:25:28.003Z,11.78
2022-09-28T19:27:54.681Z,11.55
2022-09-28T19:30:42.050Z,11.53
2022-09-28T19:33:08.857Z,11.51
2022-09-28T19:35:35.782Z,11.55
2022-09-28T19:38:02.686Z,11.48
2022-09-28T19:40:29.472Z,11.49
2022-09-28T19:42:56.823Z,11.48
2022-09-28T19:45:23.492Z,11.48
2022-09-28T19:48:17.852Z,11.40
2022-09-28T19:50:44.706Z,11.28
2022-09-28T19:53:11.573Z,11.37
2022-09-28T19:55:38.357Z,11.31
2022-09-28T19:58:07.830Z,11.23
2022-09-28T20:00:34.384Z,11.18
2022-09-28T20:03:00.985Z,11.21
2022-09-28T20:05:29.000Z,11.14
2022-09-28T20:07:58.654Z,11.15
2022-09-28T20:10:25.174Z,11.15
2022-09-28T20:12:52.024Z,11.03
2022-09-28T20:15:18.946Z,10.97
2022-09-28T20:17:45.800Z,10.97
2022-09-28T20:20:12.397Z,10.95
2022-09-28T20:22:40.339Z,11.00
2022-09-28T20:25:07.378Z,10.97
2022-09-28T20:27:33.981Z,10.88
2022-09-28T20:30:00.550Z,10.93
2022-09-28T20:32:27.387Z,10.86
2022-09-28T20:34:53.987Z,10.83
2022-09-28T20:37:20.525Z,10.75
2022-09-28T20:39:51.262Z,10.78
2022-09-28T20:42:18.052Z,10.85
2022-09-28T20:44:44.908Z,10.75
2022-09-28T20:47:11.712Z,10.78
2022-09-28T20:49:38.210Z,10.74
2022-09-28T20:52:04.962Z,10.62
2022-09-28T20:54:31.550Z,10.63
2022-09-28T20:57:02.549Z,10.64
2022-09-28T20:59:29.104Z,10.52
2022-09-28T21:01:55.690Z,10.53
2022-09-28T21:04:22.234Z,10.58
2022-09-28T21:06:56.177Z,10.59
2022-09-28T21:09:22.737Z,10.45
2022-09-28T21:11:49.703Z,10.57
2022-09-28T21:14:19.719Z,10.57
2022-09-28T21:16:46.521Z,10.55
2022-09-28T21:19:13.029Z,10.56
2022-09-28T21:21:39.868Z,10.46
2022-09-28T21:24:07.139Z,10.42
2022-09-28T21:26:34.030Z,10.53
2022-09-28T21:29:02.161Z,10.47
2022-09-28T21:31:32.425Z,10.40
2022-09-28T21:33:59.353Z,10.48
2022-09-28T21:36:27.941Z,10.41
2022-09-28T21:38:55.018Z,10.40
2022-09-28T21:41:23.106Z,10.46
2022-09-28T21:43:51.767Z,10.47
2022-09-28T21:46:18.710Z,10.37
2022-09-28T21:48:51.348Z,10.46
2022-09-28T21:51:18.269Z,10.42
2022-09-28T21:53:44.991Z,10.36
2022-09-28T21:56:13.038Z,10.25
2022-09-28T21:58:39.923Z,10.36
2022-09-28T22:01:08.910Z,10.22
2022-09-28T22:03:36.429Z,10.23
2022-09-28T22:06:05.067Z,10.28
2022-09-28T22:08:32.043Z,10.27
2022-09-28T22:10:59.203Z,10.22
2022-09-28T22:13:25.723Z,10.19
2022-09-28T22:15:52.994Z,10.13
2022-09-28T22:18:19.793Z,10.09
2022-09-28T22:20:46.304Z,10.09
2022-09-28T22:23:14.228Z,10.03
2022-09-28T22:25:40.781Z,10.03
2022-09-28T22:28:07.352Z,9.95
2022-09-28T22:30:34.161Z,9.84
2022-09-28T22:33:00.916Z,9.99
2022-09-28T22:35:27.652Z,9.97
2022-09-28T22:37:54.168Z,9.90
2022-09-28T22:40:22.434Z,9.93
2022-09-28T22:42:49.163Z,9.98
2022-09-28T22:45:15.691Z,10.01
2022-09-28T22:47:43.626Z,9.89
2022-09-28T22:50:10.273Z,9.84
2022-09-28T22:52:37.032Z,9.92
2022-09-28T22:55:04.124Z,9.85
2022-09-28T22:57:32.369Z,9.80
2022-09-28T22:59:59.065Z,9.77
2022-09-28T23:02:25.702Z,9.69
2022-09-28T23:04:52.243Z,9.72
2022-09-28T23:07:18.746Z,9.68
2022-09-28T23:09:46.321Z,9.75
2022-09-28T23:12:13.109Z,9.81
2022-09-28T23:14:40.995Z,9.81
2022-09-28T23:17:07.938Z,9.97
2022-09-28T23:19:34.461Z,10.06
2022-09-28T23:22:00.985Z,10.14
2022-09-28T23:24:27.503Z,10.27
2022-09-28T23:26:54.064Z,10.37
2022-09-28T23:29:20.758Z,10.51
2022-09-28T23:31:48.943Z,10.65
2022-09-28T23:34:15.477Z,10.65
2022-09-28T23:36:43.117Z,10.67
2022-09-28T23:39:10.415Z,10.74
2022-09-28T23:41:37.390Z,10.68
2022-09-28T23:44:05.484Z,10.80
2022-09-28T23:46:32.015Z,10.79
2022-09-28T23:49:00.153Z,10.83
2022-09-28T23:51:26.757Z,10.84
2022-09-28T23:53:53.345Z,10.80
2022-09-28T23:56:19.876Z,10.78
2022-09-28T23:58:46.444Z,10.77
